Time;durP1;ratioP1;P1;durP2;ratioP2;P2;SDS_P1;SDS_P2;PMS_P1;PMS_P2;Temp;Humidity;BMP_temperature;BMP_pressure;BME280_temperature;BME280_humidity;BME280_pressure;Samples;Min_cycle;Max_cycle;Signal;HPM_P1;HPM_P2
2022/07/25 00:00:38;;;;;;;;;;;;;;;27.61;40.96;99578.44;2081679;28;20360;-65
2022/07/25 00:01:38;;;;;;;;;;;;;;;27.61;41.12;99583.97;2081594;28;19943;-65
2022/07/25 00:02:39;;;;;;;;;;;;;;;27.63;41.05;99592.03;2081657;28;19933;-65
2022/07/25 00:03:39;;;;;;;;;;;;;;;27.62;40.99;99599.50;2076259;28;19920;-65
2022/07/25 00:04:40;;;;;;;;;;;;;;;27.61;41.01;99595.03;2073715;28;19949;-65
2022/07/25 00:05:40;;;;;;;;;;;;;;;27.61;41.22;99595.03;2077769;28;19917;-65
2022/07/25 00:06:41;;;;;;;;;;;;;;;27.61;41.21;99592.28;2082119;28;19920;-65
2022/07/25 00:07:42;;;;;;;;;;;;;;;27.62;41.19;99596.72;2073696;28;19917;-65
2022/07/25 00:08:42;;;;;;;;;;;;;;;27.62;40.97;99593.13;2077547;28;19975;-65
2022/07/25 00:09:43;;;;;;;;;;;;;;;27.61;41.27;99589.50;2081775;28;20550;-65
2022/07/25 00:10:43;;;;;;;;;;;;;;;27.62;41.00;99596.72;2081494;28;20384;-65
2022/07/25 00:11:43;;;;;;;;;;;;;;;27.62;41.15;99585.66;2081602;28;19913;-65
2022/07/25 00:12:44;;;;;;;;;;;;;;;27.62;41.17;99587.59;2081417;28;19935;-65
2022/07/25 00:13:44;;;;;;;;;;;;;;;27.61;41.01;99592.28;2081426;28;19936;-65
2022/07/25 00:14:44;;;;;;;;;;;;;;;27.62;41.03;99596.72;2073633;28;19936;-65
2022/07/25 00:15:45;;;;;;;;;;;;;;;27.62;41.30;99595.88;2076952;28;19913;-65
2022/07/25 00:16:45;;;;;;;;;;;;;;;27.62;41.30;99595.88;2085417;28;19913;-65
2022/07/25 00:17:45;;;;;;;;;;;;;;;27.62;41.12;99593.13;2075790;28;20008;-64
2022/07/25 00:18:46;;;;;;;;;;;;;;;27.62;41.26;99602.28;2075918;28;19932;-65
2022/07/25 00:19:46;;;;;;;;;;;;;;;27.62;41.36;99596.72;2081530;28;20322;-65
2022/07/25 00:20:46;;;;;;;;;;;;;;;27.62;41.14;99595.88;2081425;28;19976;-65
2022/07/25 00:21:47;;;;;;;;;;;;;;;27.63;41.12;99603.97;2081420;28;19913;-65
2022/07/25 00:22:47;;;;;;;;;;;;;;;27.63;41.32;99600.34;2081384;28;19913;-65
2022/07/25 00:23:47;;;;;;;;;;;;;;;27.61;41.40;99597.81;2081485;28;19924;-65
2022/07/25 00:24:48;;;;;;;;;;;;;;;27.62;41.43;99601.44;2080535;28;19913;-65
2022/07/25 00:25:48;;;;;;;;;;;;;;;27.62;41.24;99595.88;2077156;28;19999;-65
2022/07/25 00:26:48;;;;;;;;;;;;;;;27.62;41.32;99607.81;2081717;28;19920;-65
2022/07/25 00:27:49;;;;;;;;;;;;;;;27.62;41.19;99607.81;2081417;28;20004;-65
2022/07/25 00:28:49;;;;;;;;;;;;;;;27.62;41.49;99610.56;2079845;28;19913;-65
2022/07/25 00:29:49;;;;;;;;;;;;;;;27.61;41.23;99600.59;2074350;28;19939;-65
2022/07/25 00:30:50;;;;;;;;;;;;;;;27.61;41.16;99611.66;2079852;28;19913;-65
2022/07/25 00:31:51;;;;;;;;;;;;;;;27.61;41.46;99606.13;2074102;28;19913;-65
2022/07/25 00:32:51;;;;;;;;;;;;;;;27.61;41.46;99614.44;2078206;28;19913;-65
2022/07/25 00:33:51;;;;;;;;;;;;;;;27.61;41.36;99611.66;2081470;28;19924;-65
2022/07/25 00:34:52;;;;;;;;;;;;;;;27.61;41.23;99606.13;2081394;28;20559;-65
2022/07/25 00:35:52;;;;;;;;;;;;;;;27.61;41.50;99606.13;2081242;28;19920;-65
2022/07/25 00:36:52;;;;;;;;;;;;;;;27.62;41.44;99602.28;2079062;28;19913;-65
2022/07/25 00:37:53;;;;;;;;;;;;;;;27.61;41.41;99606.13;2075438;28;19928;-63
2022/07/25 00:38:53;;;;;;;;;;;;;;;27.60;41.50;99603.56;2081301;28;20058;-65
2022/07/25 00:39:54;;;;;;;;;;;;;;;27.60;41.51;99609.94;2081094;28;19952;-65
2022/07/25 00:40:54;;;;;;;;;;;;;;;27.60;41.50;99612.72;2082664;28;19924;-65
2022/07/25 00:41:54;;;;;;;;;;;;;;;27.60;41.62;99609.94;2082889;28;19913;-65
2022/07/25 00:42:55;;;;;;;;;;;;;;;27.60;41.48;99612.72;2083060;28;20302;-65
2022/07/25 00:43:55;;;;;;;;;;;;;;;27.60;41.58;99615.47;2082891;28;19938;-65
2022/07/25 00:44:55;;;;;;;;;;;;;;;27.60;41.72;99621.00;2082576;28;19909;-65
2022/07/25 00:45:57;;;;;;;;;;;;;;;27.61;41.56;99616.31;2077001;28;19945;-65
2022/07/25 00:46:57;;;;;;;;;;;;;;;27.60;41.66;99609.94;2082678;28;19913;-65
2022/07/25 00:47:58;;;;;;;;;;;;;;;27.60;41.54;99615.47;2082846;28;19971;-65
2022/07/25 00:48:58;;;;;;;;;;;;;;;27.60;41.85;99621.00;2082944;28;20357;-65
2022/07/25 00:49:58;;;;;;;;;;;;;;;27.60;41.65;99621.00;2081037;28;19920;-65
2022/07/25 00:50:59;;;;;;;;;;;;;;;27.60;41.69;99626.53;2091444;28;19958;-65
2022/07/25 00:51:59;;;;;;;;;;;;;;;27.60;41.72;99629.31;2082689;28;19953;-65
2022/07/25 00:53:00;;;;;;;;;;;;;;;27.62;41.67;99626.34;2082803;28;19913;-64
2022/07/25 00:54:00;;;;;;;;;;;;;;;27.61;41.65;99632.94;2082936;28;19913;-65
2022/07/25 00:55:00;;;;;;;;;;;;;;;27.60;41.94;99632.09;2081589;28;20000;-65
2022/07/25 00:56:01;;;;;;;;;;;;;;;27.60;41.70;99632.09;2089529;28;19970;-65
2022/07/25 00:57:01;;;;;;;;;;;;;;;27.61;42.01;99633.81;2082703;28;19963;-65
2022/07/25 00:58:01;;;;;;;;;;;;;;;27.62;41.97;99632.72;2082943;28;20055;-65
2022/07/25 00:59:02;;;;;;;;;;;;;;;27.61;41.97;99639.34;2083025;28;19976;-65
2022/07/25 01:00:04;;;;;;;;;;;;;;;27.58;41.84;99635.09;2077596;28;20322;-65
2022/07/25 01:01:05;;;;;;;;;;;;;;;27.60;41.90;99632.09;2088535;28;20007;-65
2022/07/25 01:02:05;;;;;;;;;;;;;;;27.60;42.04;99637.63;2091102;28;19920;-65
2022/07/25 01:03:05;;;;;;;;;;;;;;;27.60;42.02;99637.63;2082809;28;19913;-65
2022/07/25 01:04:05;;;;;;;;;;;;;;;27.60;41.88;99637.63;2082763;28;19939;-65
2022/07/25 01:05:06;;;;;;;;;;;;;;;27.60;41.98;99642.31;2082576;28;20013;-65
2022/07/25 01:06:07;;;;;;;;;;;;;;;27.60;42.18;99648.69;2082286;28;19913;-65
2022/07/25 01:07:07;;;;;;;;;;;;;;;27.60;41.97;99648.69;2082212;28;19913;-65
2022/07/25 01:08:08;;;;;;;;;;;;;;;27.60;41.96;99657.00;2082226;28;19920;-65
2022/07/25 01:09:09;;;;;;;;;;;;;;;27.60;42.16;99650.63;2082237;28;19956;-65
2022/07/25 01:10:09;;;;;;;;;;;;;;;27.60;41.93;99654.22;2075691;28;19932;-65
2022/07/25 01:11:09;;;;;;;;;;;;;;;27.59;41.99;99658.09;2075124;28;19920;-65
2022/07/25 01:12:10;;;;;;;;;;;;;;;27.59;42.14;99660.84;2076588;28;19920;-65
2022/07/25 01:13:10;;;;;;;;;;;;;;;27.58;42.37;99656.38;2077381;28;19970;-65
2022/07/25 01:14:10;;;;;;;;;;;;;;;27.59;42.20;99663.63;2082898;28;19913;-64
2022/07/25 01:15:11;;;;;;;;;;;;;;;27.60;42.21;99658.94;2082623;28;19917;-65
2022/07/25 01:16:11;;;;;;;;;;;;;;;27.59;42.28;99663.63;2082772;28;20280;-65
2022/07/25 01:17:12;;;;;;;;;;;;;;;27.59;42.27;99666.38;2074994;28;19943;-65
2022/07/25 01:18:12;;;;;;;;;;;;;;;27.58;42.31;99671.09;2081644;28;19917;-65
2022/07/25 01:19:13;;;;;;;;;;;;;;;27.59;42.30;99669.16;2082335;28;19917;-65
2022/07/25 01:20:14;;;;;;;;;;;;;;;27.59;42.09;99669.16;2082229;28;19913;-65
2022/07/25 01:21:15;;;;;;;;;;;;;;;27.59;42.14;99666.38;2082473;28;19919;-65
2022/07/25 01:22:15;;;;;;;;;;;;;;;27.58;42.42;99676.63;2081063;28;19917;-65
2022/07/25 01:23:15;;;;;;;;;;;;;;;27.59;42.15;99680.22;2081723;28;20009;-65
2022/07/25 01:24:16;;;;;;;;;;;;;;;27.59;42.28;99688.53;2082522;28;19953;-65
2022/07/25 01:25:16;;;;;;;;;;;;;;;27.59;42.41;99677.47;2082802;28;19913;-65
2022/07/25 01:26:16;;;;;;;;;;;;;;;27.58;42.32;99678.50;2082622;28;19919;-65
2022/07/25 01:27:17;;;;;;;;;;;;;;;27.59;42.25;99680.22;2082654;28;19917;-65
2022/07/25 01:28:17;;;;;;;;;;;;;;;27.60;42.46;99689.38;2082316;28;20257;-65
2022/07/25 01:29:17;;;;;;;;;;;;;;;27.59;42.55;99694.06;2082680;28;20396;-65
2022/07/25 01:30:18;;;;;;;;;;;;;;;27.59;42.34;99685.78;2082078;28;19913;-65
2022/07/25 01:31:19;;;;;;;;;;;;;;;27.58;42.35;99679.38;2082728;28;19924;-65
2022/07/25 01:32:19;;;;;;;;;;;;;;;27.58;42.41;99684.94;2082119;28;19913;-64
2022/07/25 01:33:20;;;;;;;;;;;;;;;27.58;42.51;99697.88;2082453;28;20347;-65
2022/07/25 01:34:20;;;;;;;;;;;;;;;27.59;42.35;99685.78;2082553;28;19913;-65
2022/07/25 01:35:21;;;;;;;;;;;;;;;27.58;42.48;99692.34;2079779;28;19913;-65
2022/07/25 01:36:21;;;;;;;;;;;;;;;27.59;42.71;99691.31;2074517;28;20321;-65
2022/07/25 01:37:21;;;;;;;;;;;;;;;27.58;42.71;99701.53;2080219;28;20383;-65
2022/07/25 01:38:22;;;;;;;;;;;;;;;27.58;42.48;99700.66;2082336;28;20343;-65
2022/07/25 01:39:22;;;;;;;;;;;;;;;27.59;42.52;99702.38;2081822;28;19919;-65
2022/07/25 01:40:22;;;;;;;;;;;;;;;27.58;42.65;99708.97;2082286;28;19969;-65
2022/07/25 01:41:22;;;;;;;;;;;;;;;27.58;42.79;99706.19;2082615;28;19914;-65
2022/07/25 01:42:23;;;;;;;;;;;;;;;27.58;42.71;99706.19;2082237;28;19917;-65
2022/07/25 01:43:23;;;;;;;;;;;;;;;27.58;42.60;99703.44;2082303;28;19917;-65
2022/07/25 01:44:23;;;;;;;;;;;;;;;27.58;42.75;99711.72;2074642;28;19918;-65
2022/07/25 01:45:24;;;;;;;;;;;;;;;27.58;42.71;99706.19;2076975;28;19921;-65
2022/07/25 01:46:24;;;;;;;;;;;;;;;27.56;42.81;99706.44;2082452;28;19919;-65
2022/07/25 01:47:24;;;;;;;;;;;;;;;27.56;42.73;99708.31;2077778;28;19921;-65
2022/07/25 01:48:25;;;;;;;;;;;;;;;27.56;42.97;99713.84;2075280;28;19925;-65
2022/07/25 01:49:25;;;;;;;;;;;;;;;27.57;42.89;99721.13;2082121;28;19913;-65
2022/07/25 01:50:26;;;;;;;;;;;;;;;27.57;42.81;99721.13;2080882;28;19959;-65
2022/07/25 01:51:26;;;;;;;;;;;;;;;27.55;43.02;99713.00;2081716;28;19920;-65
2022/07/25 01:52:26;;;;;;;;;;;;;;;27.57;43.02;99718.34;2075745;28;20264;-65
2022/07/25 01:53:26;;;;;;;;;;;;;;;27.56;43.19;99713.84;2084143;28;20358;-64
2022/07/25 01:54:27;;;;;;;;;;;;;;;27.56;42.85;99713.84;2083049;28;19913;-65
2022/07/25 01:55:27;;;;;;;;;;;;;;;27.56;43.13;99709.19;2082232;28;20311;-65
2022/07/25 01:56:27;;;;;;;;;;;;;;;27.57;43.24;99726.66;2082295;28;19960;-65
2022/07/25 01:57:28;;;;;;;;;;;;;;;27.55;43.09;99724.09;2082272;28;19923;-65
2022/07/25 01:58:28;;;;;;;;;;;;;;;27.56;43.00;99731.34;2082360;28;19952;-65
2022/07/25 01:59:28;;;;;;;;;;;;;;;27.56;43.24;99730.47;2082248;28;19921;-65
2022/07/25 02:00:29;;;;;;;;;;;;;;;27.56;43.00;99724.94;2082239;28;19920;-65
2022/07/25 02:01:29;;;;;;;;;;;;;;;27.56;43.14;99730.47;2081742;28;19925;-65
2022/07/25 02:02:29;;;;;;;;;;;;;;;27.56;43.16;99730.47;2081255;28;19913;-65
2022/07/25 02:03:30;;;;;;;;;;;;;;;27.56;43.07;99730.47;2082117;28;19914;-65
2022/07/25 02:04:30;;;;;;;;;;;;;;;27.55;43.25;99729.63;2082132;28;20376;-65
2022/07/25 02:05:30;;;;;;;;;;;;;;;27.55;43.30;99732.41;2082234;28;20366;-65
2022/07/25 02:06:33;;;;;;;;;;;;;;;27.56;43.55;99741.53;2082185;28;19956;-65
2022/07/25 02:07:33;;;;;;;;;;;;;;;27.55;43.45;99732.41;2074331;28;19975;-65
2022/07/25 02:08:34;;;;;;;;;;;;;;;27.54;43.59;99739.00;2080415;28;20323;-65
2022/07/25 02:09:34;;;;;;;;;;;;;;;27.56;43.54;99738.78;2082030;28;19924;-65
2022/07/25 02:10:35;;;;;;;;;;;;;;;27.54;43.58;99738.16;2082148;28;19913;-65
2022/07/25 02:11:35;;;;;;;;;;;;;;;27.54;43.63;99743.69;2082145;28;19967;-65
2022/07/25 02:12:35;;;;;;;;;;;;;;;27.55;43.55;99745.38;2082182;28;20430;-65
2022/07/25 02:13:36;;;;;;;;;;;;;;;27.54;43.74;99744.53;2077795;28;20000;-64
2022/07/25 02:14:36;;;;;;;;;;;;;;;27.54;43.41;99743.69;2081312;28;19944;-65
2022/07/25 02:15:36;;;;;;;;;;;;;;;27.54;43.62;99749.25;2079325;28;19967;-65
2022/07/25 02:16:37;;;;;;;;;;;;;;;27.55;43.71;99753.69;2082011;28;19913;-65
2022/07/25 02:17:37;;;;;;;;;;;;;;;27.53;43.41;99748.38;2082055;28;19917;-65
2022/07/25 02:18:37;;;;;;;;;;;;;;;27.54;43.39;99746.47;2081649;28;19921;-65
2022/07/25 02:19:38;;;;;;;;;;;;;;;27.54;43.63;99749.25;2082375;28;19924;-65
2022/07/25 02:20:38;;;;;;;;;;;;;;;27.53;43.49;99744.75;2082036;28;19913;-65
2022/07/25 02:21:39;;;;;;;;;;;;;;;27.53;43.61;99736.44;2082162;28;19935;-65
2022/07/25 02:22:39;;;;;;;;;;;;;;;27.53;43.46;99758.59;2081926;28;19913;-65
2022/07/25 02:23:39;;;;;;;;;;;;;;;27.53;43.60;99751.13;2081855;28;19913;-65
2022/07/25 02:24:40;;;;;;;;;;;;;;;27.53;43.55;99753.06;2082154;28;19971;-65
2022/07/25 02:25:40;;;;;;;;;;;;;;;27.53;43.68;99755.81;2077546;28;20444;-65
2022/07/25 02:26:40;;;;;;;;;;;;;;;27.52;43.83;99754.13;2081834;28;19913;-65
2022/07/25 02:27:41;;;;;;;;;;;;;;;27.52;43.76;99752.22;2082115;28;19917;-65
2022/07/25 02:28:41;;;;;;;;;;;;;;;27.52;44.02;99754.13;2081812;28;20232;-65
2022/07/25 02:29:42;;;;;;;;;;;;;;;27.51;44.08;99756.06;2082097;28;20342;-65
2022/07/25 02:30:42;;;;;;;;;;;;;;;27.52;43.92;99756.91;2081739;28;19948;-65
2022/07/25 02:31:42;;;;;;;;;;;;;;;27.51;44.03;99758.81;2082019;28;19924;-65
2022/07/25 02:32:43;;;;;;;;;;;;;;;27.52;44.13;99762.44;2081660;28;20391;-65
2022/07/25 02:33:43;;;;;;;;;;;;;;;27.52;44.02;99763.28;2079998;28;19923;-65
2022/07/25 02:34:43;;;;;;;;;;;;;;;27.52;44.14;99765.22;2082453;28;19975;-65
2022/07/25 02:35:44;;;;;;;;;;;;;;;27.52;44.04;99762.44;2081741;28;19963;-65
2022/07/25 02:36:44;;;;;;;;;;;;;;;27.52;44.09;99767.97;2081994;28;20264;-65
2022/07/25 02:37:45;;;;;;;;;;;;;;;27.52;43.88;99767.97;2078291;28;19974;-65
2022/07/25 02:38:45;;;;;;;;;;;;;;;27.53;44.23;99769.66;2081901;28;20008;-65
2022/07/25 02:39:45;;;;;;;;;;;;;;;27.52;43.88;99768.81;2081763;28;20299;-65
2022/07/25 02:40:46;;;;;;;;;;;;;;;27.53;44.09;99769.66;2081604;28;19913;-65
2022/07/25 02:41:47;;;;;;;;;;;;;;;27.52;43.84;99766.03;2081388;28;19991;-65
2022/07/25 02:42:47;;;;;;;;;;;;;;;27.52;44.05;99759.66;2080841;28;19917;-64
2022/07/25 02:43:47;;;;;;;;;;;;;;;27.52;44.21;99762.44;2081776;28;19968;-65
2022/07/25 02:44:48;;;;;;;;;;;;;;;27.52;44.13;99767.97;2081757;28;19913;-65
2022/07/25 02:45:48;;;;;;;;;;;;;;;27.52;44.33;99768.81;2081652;28;19913;-65
2022/07/25 02:46:48;;;;;;;;;;;;;;;27.52;44.02;99770.75;2081940;28;19913;-65
2022/07/25 02:47:49;;;;;;;;;;;;;;;27.52;43.99;99766.03;2080477;28;19920;-65
2022/07/25 02:48:49;;;;;;;;;;;;;;;27.53;44.13;99772.44;2075173;28;19917;-65
2022/07/25 02:49:50;;;;;;;;;;;;;;;27.51;44.38;99771.78;2077091;28;19913;-65
2022/07/25 02:50:50;;;;;;;;;;;;;;;27.52;44.26;99773.50;2081899;28;19921;-65
2022/07/25 02:51:50;;;;;;;;;;;;;;;27.51;44.38;99783.75;2080567;28;19948;-65
2022/07/25 02:52:50;;;;;;;;;;;;;;;27.51;44.38;99777.31;2081674;28;19978;-65
2022/07/25 02:53:51;;;;;;;;;;;;;;;27.50;44.39;99776.47;2073713;28;19940;-66
2022/07/25 02:54:51;;;;;;;;;;;;;;;27.50;44.43;99779.25;2084289;28;19924;-65
2022/07/25 02:55:51;;;;;;;;;;;;;;;27.50;44.50;99775.63;2081795;28;19917;-65
2022/07/25 02:56:52;;;;;;;;;;;;;;;27.50;44.32;99775.63;2086416;28;19924;-64
2022/07/25 02:57:52;;;;;;;;;;;;;;;27.48;44.52;99767.53;2088437;28;19913;-65
2022/07/25 02:58:52;;;;;;;;;;;;;;;27.50;44.42;99781.16;2081657;28;19952;-65
2022/07/25 02:59:53;;;;;;;;;;;;;;;27.49;44.77;99777.56;2080881;28;19963;-65
2022/07/25 03:00:53;;;;;;;;;;;;;;;27.49;44.59;99780.31;2078655;28;19944;-65
2022/07/25 03:01:53;;;;;;;;;;;;;;;27.49;44.65;99779.47;2078849;28;19913;-65
2022/07/25 03:02:54;;;;;;;;;;;;;;;27.48;44.64;99783.28;2081439;28;19913;-65
2022/07/25 03:03:54;;;;;;;;;;;;;;;27.50;44.69;99783.94;2081016;28;19996;-65
2022/07/25 03:04:54;;;;;;;;;;;;;;;27.48;44.86;99777.75;2080772;28;19913;-65
2022/07/25 03:05:54;;;;;;;;;;;;;;;27.48;44.84;99780.53;2080699;28;19917;-63
2022/07/25 03:06:55;;;;;;;;;;;;;;;27.48;44.56;99777.75;2089791;28;19913;-65
2022/07/25 03:07:55;;;;;;;;;;;;;;;27.48;44.76;99788.84;2083037;28;19956;-65
2022/07/25 03:08:55;;;;;;;;;;;;;;;27.50;44.67;99783.94;2084120;28;19920;-65
2022/07/25 03:09:56;;;;;;;;;;;;;;;27.48;44.63;99780.53;2078020;28;19913;-65
2022/07/25 03:10:57;;;;;;;;;;;;;;;27.48;44.59;99780.53;2073497;28;19914;-65
2022/07/25 03:11:57;;;;;;;;;;;;;;;27.50;44.58;99792.25;2080467;28;20399;-65
2022/07/25 03:12:58;;;;;;;;;;;;;;;27.48;44.52;99786.06;2073874;28;20320;-65
2022/07/25 03:13:58;;;;;;;;;;;;;;;27.49;44.76;99790.56;2078256;28;19921;-65
2022/07/25 03:14:58;;;;;;;;;;;;;;;27.48;44.65;99786.91;2077205;28;19917;-65
2022/07/25 03:15:59;;;;;;;;;;;;;;;27.48;44.54;99788.84;2081319;28;19913;-65
2022/07/25 03:16:59;;;;;;;;;;;;;;;27.48;44.46;99778.59;2081738;28;19917;-65
2022/07/25 03:17:59;;;;;;;;;;;;;;;27.49;44.68;99782.25;2081373;28;19920;-66
2022/07/25 03:19:00;;;;;;;;;;;;;;;27.49;44.82;99790.56;2081297;28;19924;-65
2022/07/25 03:20:00;;;;;;;;;;;;;;;27.49;44.69;99790.56;2081310;28;19917;-65
2022/07/25 03:21:00;;;;;;;;;;;;;;;27.48;44.49;99795.22;2077277;28;19913;-65
2022/07/25 03:22:00;;;;;;;;;;;;;;;27.49;44.64;99793.31;2078328;28;19920;-65
2022/07/25 03:23:01;;;;;;;;;;;;;;;27.49;44.56;99796.09;2081195;28;20391;-65
2022/07/25 03:24:01;;;;;;;;;;;;;;;27.50;44.56;99787.56;2082712;28;19913;-65
2022/07/25 03:25:01;;;;;;;;;;;;;;;27.50;44.78;99783.94;2074697;28;19921;-65
2022/07/25 03:26:02;;;;;;;;;;;;;;;27.49;44.67;99790.56;2081335;28;20410;-65
2022/07/25 03:27:02;;;;;;;;;;;;;;;27.49;44.77;99793.31;2080047;28;19960;-65
2022/07/25 03:28:03;;;;;;;;;;;;;;;27.49;44.55;99793.31;2079203;28;19917;-65
2022/07/25 03:29:03;;;;;;;;;;;;;;;27.50;44.64;99793.09;2079984;28;19920;-65
2022/07/25 03:30:03;;;;;;;;;;;;;;;27.50;44.74;99792.25;2080099;28;20314;-65
2022/07/25 03:31:04;;;;;;;;;;;;;;;27.50;44.67;99797.78;2081353;28;20025;-65
2022/07/25 03:32:04;;;;;;;;;;;;;;;27.50;44.71;99792.25;2077578;28;19955;-65
2022/07/25 03:33:05;;;;;;;;;;;;;;;27.50;44.74;99797.78;2081103;28;19913;-65
2022/07/25 03:34:05;;;;;;;;;;;;;;;27.50;44.57;99809.69;2076177;28;19914;-65
2022/07/25 03:35:06;;;;;;;;;;;;;;;27.50;44.64;99808.84;2079471;28;19919;-65
2022/07/25 03:36:07;;;;;;;;;;;;;;;27.50;44.57;99806.09;2080915;28;19913;-66
2022/07/25 03:37:07;;;;;;;;;;;;;;;27.49;44.84;99801.63;2081401;28;19963;-65
2022/07/25 03:38:07;;;;;;;;;;;;;;;27.48;44.52;99810.97;2080889;28;19932;-65
2022/07/25 03:39:07;;;;;;;;;;;;;;;27.48;44.71;99809.06;2081511;28;19933;-65
2022/07/25 03:40:08;;;;;;;;;;;;;;;27.48;44.85;99803.50;2074655;28;19924;-65
2022/07/25 03:41:08;;;;;;;;;;;;;;;27.48;44.80;99803.50;2073632;28;19918;-65
2022/07/25 03:42:10;;;;;;;;;;;;;;;27.48;44.80;99799.91;2081470;28;20392;-65
2022/07/25 03:43:10;;;;;;;;;;;;;;;27.48;44.69;99806.28;2081053;28;19935;-65
2022/07/25 03:44:11;;;;;;;;;;;;;;;27.47;44.78;99803.75;2081389;28;19917;-65
2022/07/25 03:45:11;;;;;;;;;;;;;;;27.48;44.81;99808.22;2080970;28;19920;-65
2022/07/25 03:46:11;;;;;;;;;;;;;;;27.47;44.73;99804.59;2081270;28;19982;-65
2022/07/25 03:47:12;;;;;;;;;;;;;;;27.47;44.85;99810.13;2073078;28;19917;-65
2022/07/25 03:48:12;;;;;;;;;;;;;;;27.47;44.99;99809.28;2074506;28;19913;-65
2022/07/25 03:49:12;;;;;;;;;;;;;;;27.48;44.99;99810.97;2073210;28;19961;-65
2022/07/25 03:50:13;;;;;;;;;;;;;;;27.47;44.88;99809.28;2079463;28;19913;-65
2022/07/25 03:51:13;;;;;;;;;;;;;;;27.48;44.92;99810.97;2081267;28;19917;-65
2022/07/25 03:52:13;;;;;;;;;;;;;;;27.47;44.99;99815.66;2073893;28;20016;-63
2022/07/25 03:53:13;;;;;;;;;;;;;;;27.48;44.99;99816.50;2077076;28;19919;-65
2022/07/25 03:54:14;;;;;;;;;;;;;;;27.48;45.05;99808.22;2081314;28;19960;-65
2022/07/25 03:55:14;;;;;;;;;;;;;;;27.47;45.14;99820.34;2080927;28;19913;-65
2022/07/25 03:56:14;;;;;;;;;;;;;;;27.46;44.96;99813.94;2081282;28;19920;-65
2022/07/25 03:57:15;;;;;;;;;;;;;;;27.46;45.13;99816.72;2081451;28;19955;-65
2022/07/25 03:58:15;;;;;;;;;;;;;;;27.47;45.22;99817.59;2080909;28;19913;-65
2022/07/25 03:59:19;;;;;;;;;;;;;;;27.46;45.10;99816.72;2081213;28;19913;-65
2022/07/25 04:00:19;;;;;;;;;;;;;;;27.47;45.01;99823.13;2080813;28;19921;-65
2022/07/25 04:01:19;;;;;;;;;;;;;;;27.46;45.10;99822.25;2081312;28;19917;-65
2022/07/25 04:02:20;;;;;;;;;;;;;;;27.47;45.16;99823.97;2081244;28;20402;-66
2022/07/25 04:03:20;;;;;;;;;;;;;;;27.46;44.92;99819.47;2080954;28;20331;-65
2022/07/25 04:04:20;;;;;;;;;;;;;;;27.47;44.95;99821.19;2081420;28;19917;-65
2022/07/25 04:05:21;;;;;;;;;;;;;;;27.47;45.03;99825.91;2081133;28;19917;-65
2022/07/25 04:06:22;;;;;;;;;;;;;;;27.47;44.91;99821.19;2081354;28;19921;-65
2022/07/25 04:07:22;;;;;;;;;;;;;;;27.47;45.12;99821.19;2081213;28;19921;-65
2022/07/25 04:08:22;;;;;;;;;;;;;;;27.47;45.21;99825.91;2080377;28;20056;-65
2022/07/25 04:09:23;;;;;;;;;;;;;;;27.46;44.93;99830.56;2076815;28;19913;-65
2022/07/25 04:10:23;;;;;;;;;;;;;;;27.47;45.23;99831.44;2080771;28;19921;-65
2022/07/25 04:11:23;;;;;;;;;;;;;;;27.48;45.23;99827.59;2081328;28;19921;-65
2022/07/25 04:12:24;;;;;;;;;;;;;;;27.47;45.00;99836.97;2080939;28;19921;-65
2022/07/25 04:13:24;;;;;;;;;;;;;;;27.47;45.12;99831.44;2080934;28;19924;-65
2022/07/25 04:14:25;;;;;;;;;;;;;;;27.46;45.13;99836.09;2081695;28;20003;-65
2022/07/25 04:15:25;;;;;;;;;;;;;;;27.46;45.35;99836.09;2082379;28;20014;-65
2022/07/25 04:16:25;;;;;;;;;;;;;;;27.47;45.12;99839.72;2082795;28;20579;-65
2022/07/25 04:17:26;;;;;;;;;;;;;;;27.48;45.09;99838.66;2080095;28;20007;-65
2022/07/25 04:18:26;;;;;;;;;;;;;;;27.47;45.31;99832.28;2080226;28;19913;-65
2022/07/25 04:19:26;;;;;;;;;;;;;;;27.47;45.28;99836.97;2082554;28;19913;-65
2022/07/25 04:20:27;;;;;;;;;;;;;;;27.46;45.34;99838.84;2082550;28;19913;-65
2022/07/25 04:21:27;;;;;;;;;;;;;;;27.47;45.13;99842.50;2082682;28;19944;-65
2022/07/25 04:22:27;;;;;;;;;;;;;;;27.46;45.38;99841.63;2082658;28;19913;-65
2022/07/25 04:23:27;;;;;;;;;;;;;;;27.46;45.38;99846.31;2082898;28;19967;-66
2022/07/25 04:24:28;;;;;;;;;;;;;;;27.46;45.24;99846.31;2079053;28;19949;-65
2022/07/25 04:25:29;;;;;;;;;;;;;;;27.46;45.21;99835.25;2074797;28;19913;-66
2022/07/25 04:26:30;;;;;;;;;;;;;;;27.45;45.39;99845.47;2081594;28;19955;-65
2022/07/25 04:27:30;;;;;;;;;;;;;;;27.46;45.32;99846.31;2082531;28;19913;-65
2022/07/25 04:28:31;;;;;;;;;;;;;;;27.45;45.43;99847.38;2082764;28;19917;-65
2022/07/25 04:29:31;;;;;;;;;;;;;;;27.45;45.46;99853.78;2079900;28;19918;-65
2022/07/25 04:30:31;;;;;;;;;;;;;;;27.45;45.38;99841.84;2087861;28;19921;-65
2022/07/25 04:31:32;;;;;;;;;;;;;;;27.45;45.74;99852.94;2085414;28;20354;-65
2022/07/25 04:32:32;;;;;;;;;;;;;;;27.44;45.53;99846.53;2081967;28;19953;-65
2022/07/25 04:33:35;;;;;;;;;;;;;;;27.45;45.76;99855.69;2082035;28;20276;-65
2022/07/25 04:34:35;;;;;;;;;;;;;;;27.44;45.72;99853.97;2082634;28;19917;-63
2022/07/25 04:35:36;;;;;;;;;;;;;;;27.44;45.54;99862.28;2082516;28;19917;-65
2022/07/25 04:36:36;;;;;;;;;;;;;;;27.44;45.79;99860.38;2080049;28;19919;-65
2022/07/25 04:37:37;;;;;;;;;;;;;;;27.45;45.80;99866.75;2082272;28;19921;-65
2022/07/25 04:38:37;;;;;;;;;;;;;;;27.44;45.71;99860.38;2082390;28;19964;-65
2022/07/25 04:39:37;;;;;;;;;;;;;;;27.44;45.60;99859.50;2080391;28;19921;-65
2022/07/25 04:40:38;;;;;;;;;;;;;;;27.43;45.59;99866.97;2082537;28;19917;-65
2022/07/25 04:41:38;;;;;;;;;;;;;;;27.45;45.53;99866.75;2082435;28;19913;-65
2022/07/25 04:42:39;;;;;;;;;;;;;;;27.44;45.33;99876.13;2081968;28;19932;-65
2022/07/25 04:43:39;;;;;;;;;;;;;;;27.44;45.65;99870.56;2073587;28;19913;-65
2022/07/25 04:44:39;;;;;;;;;;;;;;;27.44;45.67;99865.91;2079119;28;19948;-66
2022/07/25 04:45:39;;;;;;;;;;;;;;;27.45;45.62;99869.53;2083412;28;19970;-65
2022/07/25 04:46:40;;;;;;;;;;;;;;;27.45;45.47;99875.06;2082192;28;20666;-65
2022/07/25 04:47:40;;;;;;;;;;;;;;;27.44;45.62;99871.47;2082705;28;19958;-65
2022/07/25 04:48:40;;;;;;;;;;;;;;;27.44;45.53;99871.47;2079992;28;19917;-65
2022/07/25 04:49:41;;;;;;;;;;;;;;;27.44;45.43;99876.13;2077131;28;19923;-65
2022/07/25 04:50:41;;;;;;;;;;;;;;;27.44;45.35;99871.47;2082444;28;19963;-65
2022/07/25 04:51:41;;;;;;;;;;;;;;;27.45;45.33;99875.06;2082399;28;19921;-65
2022/07/25 04:52:42;;;;;;;;;;;;;;;27.45;45.53;99875.06;2082545;28;19921;-65
2022/07/25 04:53:42;;;;;;;;;;;;;;;27.45;45.55;99877.84;2082278;28;20125;-65
2022/07/25 04:54:42;;;;;;;;;;;;;;;27.44;45.46;99879.75;2082581;28;20457;-65
2022/07/25 04:55:43;;;;;;;;;;;;;;;27.45;45.46;99883.38;2082496;28;19948;-65
2022/07/25 04:56:43;;;;;;;;;;;;;;;27.44;45.54;99887.19;2082325;28;19960;-65
2022/07/25 04:57:43;;;;;;;;;;;;;;;27.44;45.52;99879.75;2082307;28;19920;-65
2022/07/25 04:58:43;;;;;;;;;;;;;;;27.44;45.71;99887.19;2077936;28;19921;-65
2022/07/25 04:59:44;;;;;;;;;;;;;;;27.44;45.33;99887.19;2087271;28;19920;-65
2022/07/25 05:00:44;;;;;;;;;;;;;;;27.45;45.51;99891.69;2082314;28;19923;-65
2022/07/25 05:01:44;;;;;;;;;;;;;;;27.44;45.68;99887.19;2082216;28;19940;-65
2022/07/25 05:02:45;;;;;;;;;;;;;;;27.44;45.68;99895.50;2082257;28;20125;-65
2022/07/25 05:03:45;;;;;;;;;;;;;;;27.44;45.50;99898.25;2082420;28;20359;-65
2022/07/25 05:04:45;;;;;;;;;;;;;;;27.43;45.62;99897.41;2081845;28;19962;-65
2022/07/25 05:05:46;;;;;;;;;;;;;;;27.44;45.33;99898.25;2077181;28;19944;-65
2022/07/25 05:06:46;;;;;;;;;;;;;;;27.44;45.65;99895.50;2082303;28;19920;-65
2022/07/25 05:07:46;;;;;;;;;;;;;;;27.43;45.73;99899.34;2082155;28;19963;-65
2022/07/25 05:08:47;;;;;;;;;;;;;;;27.43;45.72;99897.41;2082180;28;20268;-65
2022/07/25 05:09:47;;;;;;;;;;;;;;;27.43;45.77;99902.94;2082461;28;19913;-65
2022/07/25 05:10:47;;;;;;;;;;;;;;;27.42;45.53;99900.41;2080187;28;20342;-65
2022/07/25 05:11:47;;;;;;;;;;;;;;;27.43;45.66;99896.56;2082161;28;20387;-65
2022/07/25 05:12:48;;;;;;;;;;;;;;;27.42;45.70;99892.09;2079262;28;20233;-65
2022/07/25 05:13:48;;;;;;;;;;;;;;;27.43;45.67;99899.34;2081849;28;20354;-66
2022/07/25 05:14:48;;;;;;;;;;;;;;;27.42;45.80;99894.88;2081787;28;19978;-65